createdAt,value
2018-05-26T00:00:31.512Z,2.43
2018-05-26T00:02:59.993Z,2.80
2018-05-26T00:05:28.533Z,3.80
2018-05-26T00:07:56.261Z,2.73
2018-05-26T00:10:23.970Z,2.40
2018-05-26T00:12:51.716Z,2.73
2018-05-26T00:15:19.455Z,2.10
2018-05-26T00:17:47.196Z,2.60
2018-05-26T00:20:14.940Z,2.97
2018-05-26T00:22:48.996Z,2.57
2018-05-26T00:25:16.728Z,2.10
2018-05-26T00:27:44.456Z,3.07
2018-05-26T00:30:12.156Z,3.33
2018-05-26T00:32:40.636Z,2.80
2018-05-26T00:35:09.103Z,3.40
2018-05-26T00:37:37.622Z,2.80
2018-05-26T00:40:05.376Z,2.90
2018-05-26T00:42:33.104Z,3.30
2018-05-26T00:45:00.809Z,3.40
2018-05-26T00:47:28.542Z,2.47
2018-05-26T00:49:57.012Z,2.63
2018-05-26T00:52:26.153Z,2.50
2018-05-26T00:54:53.883Z,4.33
2018-05-26T00:57:22.359Z,3.47
2018-05-26T00:59:50.822Z,2.90
2018-05-26T01:02:18.600Z,3.00
2018-05-26T01:04:47.081Z,2.93
2018-05-26T01:07:15.560Z,2.87
2018-05-26T01:09:44.115Z,2.90
2018-05-26T01:12:11.804Z,3.30
2018-05-26T01:14:40.316Z,3.73
2018-05-26T01:17:08.064Z,3.23
2018-05-26T01:19:36.544Z,3.30
2018-05-26T01:22:05.013Z,3.47
2018-05-26T01:24:33.525Z,3.03
2018-05-26T01:27:01.252Z,3.10
2018-05-26T01:29:28.977Z,3.00
2018-05-26T01:31:56.712Z,3.90
2018-05-26T01:34:24.437Z,2.70
2018-05-26T01:36:52.149Z,3.40
2018-05-26T01:39:19.876Z,2.80
2018-05-26T01:41:48.357Z,3.23
2018-05-26T01:44:16.863Z,3.83
2018-05-26T01:46:44.595Z,4.03
2018-05-26T01:49:13.074Z,3.40
2018-05-26T01:51:40.773Z,4.10
2018-05-26T01:54:08.524Z,4.03
2018-05-26T01:56:36.236Z,3.40
2018-05-26T01:59:03.975Z,2.63
2018-05-26T02:01:31.705Z,3.27
2018-05-26T02:04:00.172Z,3.40
2018-05-26T02:06:29.399Z,3.10
2018-05-26T02:08:57.244Z,2.80
2018-05-26T02:11:25.720Z,3.03
2018-05-26T02:13:54.181Z,3.17
2018-05-26T02:16:21.912Z,2.73
2018-05-26T02:18:49.626Z,3.03
2018-05-26T02:21:18.165Z,3.50
2018-05-26T02:23:45.933Z,3.27
2018-05-26T02:26:14.246Z,3.57
2018-05-26T02:28:42.749Z,3.40
2018-05-26T02:31:11.232Z,3.70
2018-05-26T02:33:39.016Z,3.87
2018-05-26T02:36:06.793Z,4.10
2018-05-26T02:38:34.508Z,3.53
2018-05-26T02:41:02.979Z,3.23
2018-05-26T02:43:30.735Z,3.27
2018-05-26T02:45:59.809Z,3.30
2018-05-26T02:48:27.549Z,3.43
2018-05-26T02:50:55.272Z,3.97
2018-05-26T02:53:23.814Z,3.27
2018-05-26T02:55:51.536Z,3.03
2018-05-26T02:58:19.230Z,2.57
2018-05-26T03:00:46.994Z,3.60
2018-05-26T03:03:14.688Z,3.20
2018-05-26T03:05:47.884Z,3.50
2018-05-26T03:08:21.329Z,3.73
2018-05-26T03:10:54.553Z,3.57
2018-05-26T03:13:27.918Z,3.07
2018-05-26T03:16:01.228Z,3.13
2018-05-26T03:18:28.949Z,3.57
2018-05-26T03:20:57.485Z,3.73
2018-05-26T03:23:25.230Z,3.17
2018-05-26T03:25:52.980Z,3.23
2018-05-26T03:28:20.702Z,3.33
2018-05-26T03:30:49.209Z,2.87
2018-05-26T03:33:16.916Z,3.77
2018-05-26T03:35:44.672Z,3.40
2018-05-26T03:38:12.392Z,3.50
2018-05-26T03:40:40.095Z,3.20
2018-05-26T03:43:07.795Z,3.43
2018-05-26T03:45:35.524Z,2.80
2018-05-26T03:48:03.227Z,2.60
2018-05-26T03:50:31.704Z,3.40
2018-05-26T03:53:00.202Z,2.90
2018-05-26T03:55:49.349Z,3.43
2018-05-26T03:58:28.746Z,3.73
2018-05-26T04:00:56.499Z,3.00
2018-05-26T04:03:24.241Z,3.40
2018-05-26T04:05:52.040Z,2.70
2018-05-26T04:08:19.736Z,3.40
2018-05-26T04:10:48.208Z,3.30
2018-05-26T04:13:15.956Z,2.57
2018-05-26T04:15:43.672Z,3.57
2018-05-26T04:18:11.473Z,3.30
2018-05-26T04:20:39.225Z,3.83
2018-05-26T04:23:06.984Z,3.60
2018-05-26T04:25:34.707Z,3.27
2018-05-26T04:28:03.213Z,3.30
2018-05-26T04:30:30.953Z,3.10
2018-05-26T04:32:59.415Z,3.60
2018-05-26T04:35:27.225Z,2.90
2018-05-26T04:37:54.933Z,3.17
2018-05-26T04:40:22.652Z,3.90
2018-05-26T04:42:50.384Z,2.70
2018-05-26T04:45:18.860Z,3.13
2018-05-26T04:47:46.624Z,3.50
2018-05-26T04:50:14.373Z,3.40
2018-05-26T04:52:42.155Z,3.40
2018-05-26T04:55:10.628Z,3.37
2018-05-26T04:57:38.359Z,2.93
2018-05-26T05:00:06.077Z,3.77
2018-05-26T05:02:33.832Z,3.60
2018-05-26T05:05:02.385Z,3.60
2018-05-26T05:07:30.077Z,2.77
2018-05-26T05:09:58.557Z,4.03
2018-05-26T05:12:27.126Z,3.13
2018-05-26T05:14:54.841Z,3.13
2018-05-26T05:17:22.549Z,3.50
2018-05-26T05:19:50.660Z,3.37
2018-05-26T05:22:18.377Z,2.87
2018-05-26T05:24:46.118Z,2.57
2018-05-26T05:27:13.853Z,4.07
2018-05-26T05:29:41.552Z,3.70
2018-05-26T05:32:09.257Z,3.73
2018-05-26T05:34:37.777Z,2.73
2018-05-26T05:37:05.687Z,3.50
2018-05-26T05:39:34.208Z,2.70
2018-05-26T05:42:01.935Z,2.80
2018-05-26T05:44:30.408Z,2.70
2018-05-26T05:46:58.126Z,3.10
2018-05-26T05:49:25.848Z,3.83
2018-05-26T05:51:53.601Z,3.10
2018-05-26T05:54:21.352Z,3.60
2018-05-26T05:56:49.048Z,2.90
2018-05-26T05:59:17.551Z,2.60
2018-05-26T06:01:45.304Z,2.60
2018-05-26T06:04:13.016Z,3.30
2018-05-26T06:06:40.716Z,4.30
2018-05-26T06:09:08.444Z,3.30
2018-05-26T06:11:36.179Z,3.67
2018-05-26T06:14:03.908Z,3.10
2018-05-26T06:16:32.392Z,3.27
2018-05-26T06:19:00.867Z,3.47
2018-05-26T06:21:29.370Z,3.80
2018-05-26T06:23:57.128Z,4.40
2018-05-26T06:26:24.897Z,3.57
2018-05-26T06:28:53.340Z,4.30
2018-05-26T06:31:21.068Z,4.20
2018-05-26T06:33:48.775Z,4.93
2018-05-26T06:36:17.281Z,3.70
2018-05-26T06:38:45.009Z,3.13
2018-05-26T06:41:12.756Z,4.70
2018-05-26T06:43:40.464Z,5.47
2018-05-26T06:46:08.217Z,4.17
2018-05-26T06:48:36.760Z,4.47
2018-05-26T06:51:04.453Z,4.57
2018-05-26T06:53:32.943Z,4.10
2018-05-26T06:56:01.465Z,4.23
2018-05-26T06:58:29.160Z,4.67
2018-05-26T07:00:56.950Z,5.73
2018-05-26T07:03:25.641Z,4.90
2018-05-26T07:05:54.157Z,5.73
2018-05-26T07:08:21.900Z,5.53
2018-05-26T07:10:49.589Z,4.60
2018-05-26T07:13:17.325Z,5.33
2018-05-26T07:15:45.068Z,5.00
2018-05-26T07:18:13.563Z,4.63
2018-05-26T07:20:41.300Z,4.77
2018-05-26T07:23:09.013Z,5.80
2018-05-26T07:25:36.809Z,4.80
2018-05-26T07:28:04.537Z,4.10
2018-05-26T07:30:32.250Z,4.47
2018-05-26T07:33:00.016Z,4.03
2018-05-26T07:35:28.033Z,3.40
2018-05-26T07:37:55.817Z,3.50
2018-05-26T07:40:23.561Z,6.13
2018-05-26T07:42:51.260Z,4.90
2018-05-26T07:45:18.960Z,4.37
2018-05-26T07:47:47.606Z,2.93
2018-05-26T07:50:15.326Z,3.50
2018-05-26T07:52:43.050Z,4.27
2018-05-26T07:55:10.830Z,3.70
2018-05-26T07:57:39.292Z,3.57
2018-05-26T08:00:07.154Z,3.60
2018-05-26T08:02:37.852Z,3.73
2018-05-26T08:05:05.816Z,4.13
2018-05-26T08:07:33.552Z,2.60
2018-05-26T08:10:01.269Z,3.50
2018-05-26T08:12:29.048Z,3.10
2018-05-26T08:14:56.781Z,3.50
2018-05-26T08:17:24.622Z,4.70
2018-05-26T08:19:52.360Z,2.70
2018-05-26T08:22:20.905Z,2.60
2018-05-26T08:24:48.600Z,3.40
2018-05-26T08:27:17.191Z,2.70
2018-05-26T08:29:44.924Z,3.00
2018-05-26T08:32:12.611Z,3.27
2018-05-26T08:34:41.091Z,2.60
2018-05-26T08:37:09.561Z,3.30
2018-05-26T08:39:37.272Z,3.40
2018-05-26T08:42:06.045Z,3.60
2018-05-26T08:44:33.740Z,3.10
2018-05-26T08:47:01.463Z,3.90
2018-05-26T08:49:29.196Z,4.37
2018-05-26T08:51:57.009Z,4.47
2018-05-26T08:54:24.731Z,4.10
2018-05-26T08:56:53.209Z,3.30
2018-05-26T08:59:20.917Z,3.23
2018-05-26T09:01:48.656Z,3.03
2018-05-26T09:04:17.157Z,3.00
2018-05-26T09:06:44.856Z,2.83
2018-05-26T09:09:12.952Z,2.90
2018-05-26T09:11:41.432Z,3.53
2018-05-26T09:14:09.899Z,3.43
2018-05-26T09:16:37.657Z,3.40
2018-05-26T09:19:06.000Z,4.17
2018-05-26T09:21:33.758Z,2.57
2018-05-26T09:24:01.476Z,3.47
2018-05-26T09:26:29.991Z,2.40
2018-05-26T09:28:57.716Z,3.50
2018-05-26T09:31:25.511Z,3.97
2018-05-26T09:33:53.193Z,2.17
2018-05-26T09:36:20.891Z,2.40
2018-05-26T09:38:48.737Z,3.70
2018-05-26T09:41:16.523Z,2.83
2018-05-26T09:43:44.404Z,2.70
2018-05-26T09:46:14.502Z,2.20
2018-05-26T09:48:43.010Z,2.57
2018-05-26T09:51:10.722Z,1.93
2018-05-26T09:53:38.452Z,2.07
2018-05-26T09:56:06.991Z,1.83
2018-05-26T09:58:34.705Z,1.90
2018-05-26T10:01:02.462Z,1.60
2018-05-26T10:03:31.601Z,1.50
2018-05-26T10:05:59.299Z,1.30
2018-05-26T10:08:27.410Z,1.30
2018-05-26T10:10:55.120Z,1.00
2018-05-26T10:13:22.985Z,0.93
2018-05-26T10:15:50.736Z,1.00
2018-05-26T10:18:18.658Z,0.87
2018-05-26T10:20:46.356Z,0.87
2018-05-26T10:23:14.224Z,1.30
2018-05-26T10:25:41.936Z,0.90
2018-05-26T10:28:10.404Z,0.80
2018-05-26T10:30:38.174Z,1.00
2018-05-26T10:33:05.912Z,0.70
2018-05-26T10:35:33.689Z,1.10
2018-05-26T10:38:01.439Z,1.00
2018-05-26T10:40:35.175Z,1.20
2018-05-26T10:43:03.084Z,2.07
2018-05-26T10:45:39.896Z,0.87
2018-05-26T10:48:07.624Z,1.00
2018-05-26T10:50:35.389Z,1.20
2018-05-26T10:53:03.237Z,1.00
2018-05-26T10:55:30.968Z,1.10
2018-05-26T10:57:58.701Z,1.47
2018-05-26T11:00:26.574Z,1.20
2018-05-26T11:02:54.307Z,1.43
2018-05-26T11:05:22.134Z,1.63
2018-05-26T11:07:50.597Z,1.40
2018-05-26T11:10:19.366Z,1.17
2018-05-26T11:12:47.168Z,1.30
2018-05-26T11:15:15.679Z,1.20
2018-05-26T11:17:43.654Z,2.00
2018-05-26T11:20:11.209Z,1.20
2018-05-26T11:22:38.912Z,2.03
2018-05-26T11:25:06.708Z,1.83
2018-05-26T11:27:35.243Z,1.80
2018-05-26T11:30:02.988Z,1.87
2018-05-26T11:32:30.746Z,2.10
2018-05-26T11:34:58.493Z,1.90
2018-05-26T11:37:26.279Z,1.80
2018-05-26T11:39:54.019Z,1.70
2018-05-26T11:42:22.490Z,2.60
2018-05-26T11:44:50.975Z,3.07
2018-05-26T11:47:19.692Z,3.40
2018-05-26T11:49:47.612Z,2.63
2018-05-26T11:52:15.351Z,3.20
2018-05-26T11:54:43.087Z,2.80
2018-05-26T11:57:10.792Z,3.60
2018-05-26T11:59:38.535Z,3.50
2018-05-26T12:02:06.327Z,3.07
2018-05-26T12:04:34.109Z,2.73
2018-05-26T12:07:02.588Z,3.47
2018-05-26T12:09:31.128Z,3.50
2018-05-26T12:11:58.881Z,2.40
2018-05-26T12:14:27.076Z,1.90
2018-05-26T12:16:54.796Z,2.07
2018-05-26T12:19:22.504Z,2.50
2018-05-26T12:21:50.199Z,2.37
2018-05-26T12:24:18.684Z,2.13
2018-05-26T12:26:47.198Z,2.00
2018-05-26T12:29:14.942Z,3.17
2018-05-26T12:31:42.664Z,2.03
2018-05-26T12:34:10.363Z,3.27
2018-05-26T12:36:38.072Z,2.97
2018-05-26T12:39:05.856Z,2.20
2018-05-26T12:41:33.614Z,2.20
2018-05-26T12:44:01.436Z,2.70
2018-05-26T12:46:29.173Z,2.70
2018-05-26T12:48:57.639Z,2.57
2018-05-26T12:51:26.388Z,1.97
2018-05-26T12:53:54.128Z,2.20
2018-05-26T12:56:21.841Z,2.30
2018-05-26T12:58:49.662Z,2.43
2018-05-26T13:01:18.156Z,3.03
2018-05-26T13:03:45.924Z,2.77
2018-05-26T13:06:13.737Z,2.63
2018-05-26T13:08:42.230Z,2.30
2018-05-26T13:11:09.948Z,2.47
2018-05-26T13:13:37.672Z,2.23
2018-05-26T13:16:05.496Z,2.73
2018-05-26T13:18:34.028Z,2.03
2018-05-26T13:21:01.800Z,2.47
2018-05-26T13:23:29.508Z,2.63
2018-05-26T13:25:58.008Z,2.50
2018-05-26T13:28:25.751Z,2.30
2018-05-26T13:30:54.233Z,2.60
2018-05-26T13:33:22.742Z,3.03
2018-05-26T13:35:50.445Z,2.83
2018-05-26T13:38:18.159Z,2.40
2018-05-26T13:40:46.719Z,2.10
2018-05-26T13:43:14.465Z,2.30
2018-05-26T13:45:42.184Z,3.00
2018-05-26T13:48:09.920Z,3.40
2018-05-26T13:50:38.433Z,2.50
2018-05-26T13:53:06.229Z,2.50
2018-05-26T13:55:34.028Z,2.63
2018-05-26T13:58:01.836Z,2.50
2018-05-26T14:00:29.542Z,2.40
2018-05-26T14:02:57.261Z,2.67
2018-05-26T14:05:25.036Z,2.80
2018-05-26T14:07:52.783Z,2.60
2018-05-26T14:10:20.543Z,2.80
2018-05-26T14:12:48.433Z,2.47
2018-05-26T14:15:16.164Z,3.37
2018-05-26T14:17:43.896Z,3.63
2018-05-26T14:20:12.387Z,3.27
2018-05-26T14:22:40.900Z,4.30
2018-05-26T14:25:08.627Z,2.97
2018-05-26T14:27:37.128Z,3.20
2018-05-26T14:30:05.031Z,3.67
2018-05-26T14:32:32.739Z,3.20
2018-05-26T14:35:01.240Z,3.27
2018-05-26T14:37:28.965Z,2.87
2018-05-26T14:39:56.725Z,3.80
2018-05-26T14:42:24.483Z,3.67
2018-05-26T14:44:52.193Z,3.67
2018-05-26T14:47:19.908Z,3.77
2018-05-26T14:49:47.691Z,3.10
2018-05-26T14:52:17.048Z,3.17
2018-05-26T14:54:44.777Z,3.10
2018-05-26T14:57:13.292Z,2.80
2018-05-26T14:59:41.004Z,4.20
2018-05-26T15:02:09.480Z,3.20
2018-05-26T15:04:37.208Z,3.90
2018-05-26T15:07:04.936Z,3.43
2018-05-26T15:09:32.635Z,3.17
2018-05-26T15:12:00.389Z,3.80
2018-05-26T15:14:28.116Z,3.17
2018-05-26T15:16:56.595Z,3.07
2018-05-26T15:19:25.104Z,3.63
2018-05-26T15:21:52.879Z,2.90
2018-05-26T15:24:20.612Z,3.10
2018-05-26T15:26:48.345Z,3.27
2018-05-26T15:29:16.104Z,3.80
2018-05-26T15:31:54.881Z,3.53
2018-05-26T15:34:24.972Z,2.47
2018-05-26T15:36:53.459Z,2.97
2018-05-26T15:39:21.175Z,3.07
2018-05-26T15:41:48.884Z,3.77
2018-05-26T15:44:16.643Z,3.77
2018-05-26T15:46:45.141Z,2.90
2018-05-26T15:49:12.836Z,3.73
2018-05-26T15:51:40.584Z,3.20
2018-05-26T15:54:08.315Z,2.70
2018-05-26T15:56:36.056Z,3.20
2018-05-26T15:59:04.606Z,3.80
2018-05-26T16:01:32.300Z,3.63
2018-05-26T16:04:00.009Z,3.43
2018-05-26T16:06:27.756Z,4.07
2018-05-26T16:08:55.998Z,3.40
2018-05-26T16:11:23.696Z,3.70
2018-05-26T16:13:51.424Z,3.40
2018-05-26T16:16:19.116Z,3.60
2018-05-26T16:18:46.836Z,3.40
2018-05-26T16:21:14.578Z,3.30
2018-05-26T16:23:42.279Z,3.40
2018-05-26T16:26:09.976Z,3.23
2018-05-26T16:28:37.728Z,3.70
2018-05-26T16:31:06.294Z,3.50
2018-05-26T16:33:35.093Z,3.00
2018-05-26T16:36:03.593Z,3.30
2018-05-26T16:38:31.300Z,3.43
2018-05-26T16:40:59.042Z,3.60
2018-05-26T16:43:27.012Z,3.20
2018-05-26T16:45:54.850Z,3.20
2018-05-26T16:48:22.661Z,3.50
2018-05-26T16:50:50.440Z,3.17
2018-05-26T16:53:18.148Z,2.67
2018-05-26T16:55:45.899Z,3.13
2018-05-26T16:58:13.618Z,3.50
2018-05-26T17:00:41.353Z,3.67
2018-05-26T17:03:09.314Z,3.90
2018-05-26T17:05:37.114Z,3.50
2018-05-26T17:08:04.909Z,2.97
2018-05-26T17:10:33.448Z,3.00
2018-05-26T17:13:01.172Z,3.73
2018-05-26T17:15:28.913Z,3.80
2018-05-26T17:17:57.408Z,4.10
2018-05-26T17:20:25.211Z,3.83
2018-05-26T17:22:52.956Z,3.47
2018-05-26T17:25:20.675Z,3.60
2018-05-26T17:27:48.376Z,4.40
2018-05-26T17:30:16.179Z,3.73
2018-05-26T17:32:43.876Z,4.27
2018-05-26T17:35:12.380Z,3.60
2018-05-26T17:37:40.123Z,3.90
2018-05-26T17:40:08.616Z,3.90
2018-05-26T17:42:37.100Z,4.00
2018-05-26T17:45:05.637Z,3.90
2018-05-26T17:47:33.358Z,4.60
2018-05-26T17:50:01.044Z,4.23
2018-05-26T17:52:28.777Z,3.83
2018-05-26T17:54:57.290Z,4.50
2018-05-26T17:57:24.995Z,4.10
2018-05-26T17:59:53.851Z,4.30
2018-05-26T18:02:21.700Z,4.50
2018-05-26T18:04:49.399Z,4.80
2018-05-26T18:07:17.160Z,4.13
2018-05-26T18:09:44.889Z,4.23
2018-05-26T18:12:12.624Z,3.90
2018-05-26T18:14:40.396Z,5.97
2018-05-26T18:17:08.099Z,4.77
2018-05-26T18:19:35.808Z,3.83
2018-05-26T18:22:04.360Z,5.30
2018-05-26T18:24:32.059Z,5.80
2018-05-26T18:26:59.864Z,5.20
2018-05-26T18:29:27.592Z,5.03
2018-05-26T18:31:55.401Z,4.93
2018-05-26T18:34:23.137Z,4.63
2018-05-26T18:36:50.835Z,5.30
2018-05-26T18:39:18.524Z,4.63
2018-05-26T18:41:47.021Z,5.13
2018-05-26T18:44:15.505Z,5.50
2018-05-26T18:46:43.232Z,5.53
2018-05-26T18:49:10.947Z,4.60
2018-05-26T18:51:38.705Z,5.63
2018-05-26T18:54:06.448Z,4.87
2018-05-26T18:56:35.008Z,5.70
2018-05-26T18:59:02.718Z,5.03
2018-05-26T19:01:30.460Z,5.83
2018-05-26T19:03:58.938Z,5.87
2018-05-26T19:06:27.611Z,4.50
2018-05-26T19:08:56.145Z,5.43
2018-05-26T19:11:23.836Z,6.13
2018-05-26T19:13:51.572Z,6.27
2018-05-26T19:16:19.598Z,5.47
2018-05-26T19:18:48.265Z,7.10
2018-05-26T19:21:16.017Z,7.63
2018-05-26T19:23:43.770Z,6.73
2018-05-26T19:26:11.468Z,5.80
2018-05-26T19:28:40.055Z,6.63
2018-05-26T19:31:07.818Z,7.57
2018-05-26T19:33:36.288Z,5.70
2018-05-26T19:36:04.917Z,5.63
2018-05-26T19:38:32.624Z,6.43
2018-05-26T19:41:00.325Z,5.50
2018-05-26T19:43:28.057Z,6.43
2018-05-26T19:45:55.784Z,6.20
2018-05-26T19:48:23.645Z,5.30
2018-05-26T19:50:51.378Z,5.50
2018-05-26T19:53:19.117Z,5.80
2018-05-26T19:55:47.643Z,6.03
2018-05-26T19:58:16.148Z,6.23
2018-05-26T20:00:43.845Z,5.77
2018-05-26T20:03:12.344Z,6.10
2018-05-26T20:05:40.132Z,6.60
2018-05-26T20:08:07.930Z,6.33
2018-05-26T20:10:35.651Z,5.97
2018-05-26T20:13:03.577Z,5.93
2018-05-26T20:15:32.062Z,7.03
2018-05-26T20:18:00.625Z,5.30
2018-05-26T20:20:28.419Z,5.80
2018-05-26T20:22:57.056Z,5.53
2018-05-26T20:25:24.867Z,5.70
2018-05-26T20:27:53.378Z,6.80
2018-05-26T20:30:22.091Z,5.80
2018-05-26T20:32:49.884Z,7.03
2018-05-26T20:35:17.619Z,6.50
2018-05-26T20:37:45.492Z,6.20
2018-05-26T20:40:13.340Z,6.80
2018-05-26T20:42:41.196Z,7.10
2018-05-26T20:45:09.188Z,5.90
2018-05-26T20:47:37.023Z,6.63
2018-05-26T20:50:05.699Z,6.80
2018-05-26T20:52:33.539Z,6.57
2018-05-26T20:55:02.242Z,7.80
2018-05-26T20:57:30.004Z,6.33
2018-05-26T20:59:59.513Z,5.83
2018-05-26T21:02:27.320Z,6.27
2018-05-26T21:04:55.186Z,6.10
2018-05-26T21:07:23.257Z,7.33
2018-05-26T21:09:50.965Z,6.00
2018-05-26T21:12:19.543Z,6.30
2018-05-26T21:14:48.069Z,6.10
2018-05-26T21:17:15.797Z,5.97
2018-05-26T21:19:44.392Z,5.87
2018-05-26T21:22:12.955Z,6.17
2018-05-26T21:24:41.633Z,6.33
2018-05-26T21:27:09.704Z,5.90
2018-05-26T21:29:37.440Z,5.70
2018-05-26T21:32:05.248Z,7.93
2018-05-26T21:34:33.019Z,7.50
2018-05-26T21:37:00.847Z,6.57
2018-05-26T21:39:28.960Z,6.20
2018-05-26T21:41:57.091Z,7.30
2018-05-26T21:44:25.734Z,6.03
2018-05-26T21:46:53.568Z,6.57
2018-05-26T21:49:22.088Z,6.27
2018-05-26T21:51:49.976Z,6.20
2018-05-26T21:54:17.705Z,6.00
2018-05-26T21:56:45.475Z,6.60
2018-05-26T21:59:13.230Z,6.00
2018-05-26T22:01:40.984Z,6.40
2018-05-26T22:04:09.501Z,6.47
2018-05-26T22:06:37.217Z,7.23
2018-05-26T22:09:05.813Z,7.20
2018-05-26T22:11:34.340Z,5.93
2018-05-26T22:14:02.036Z,6.53
2018-05-26T22:16:29.776Z,6.37
2018-05-26T22:18:57.480Z,5.80
2018-05-26T22:21:25.964Z,6.87
2018-05-26T22:23:54.472Z,7.50
2018-05-26T22:26:22.186Z,6.30
2018-05-26T22:28:49.892Z,6.80
2018-05-26T22:31:17.620Z,6.40
2018-05-26T22:33:46.098Z,5.57
2018-05-26T22:36:14.704Z,7.33
2018-05-26T22:38:42.593Z,6.73
2018-05-26T22:41:10.346Z,7.40
2018-05-26T22:43:38.073Z,7.20
2018-05-26T22:46:06.555Z,6.40
2018-05-26T22:48:35.083Z,7.90
2018-05-26T22:51:02.796Z,7.07
2018-05-26T22:53:30.533Z,7.10
2018-05-26T22:55:58.292Z,7.57
2018-05-26T22:58:26.004Z,6.90
2018-05-26T23:00:54.528Z,6.40
2018-05-26T23:03:22.259Z,5.80
2018-05-26T23:05:50.080Z,7.27
2018-05-26T23:08:17.993Z,7.80
2018-05-26T23:10:46.479Z,7.50
2018-05-26T23:13:15.252Z,6.33
2018-05-26T23:15:43.765Z,5.90
2018-05-26T23:18:11.473Z,6.93
2018-05-26T23:20:39.325Z,6.93
2018-05-26T23:23:07.052Z,7.60
2018-05-26T23:25:34.765Z,7.40
2018-05-26T23:28:02.490Z,8.20
2018-05-26T23:30:30.215Z,8.00
2018-05-26T23:32:58.701Z,8.43
2018-05-26T23:35:26.426Z,8.70
2018-05-26T23:37:54.212Z,8.30
2018-05-26T23:40:22.696Z,9.30
2018-05-26T23:42:50.441Z,9.10
2018-05-26T23:45:18.161Z,9.47
2018-05-26T23:47:45.869Z,7.83
2018-05-26T23:50:13.597Z,9.00
2018-05-26T23:52:41.329Z,9.10
2018-05-26T23:55:09.049Z,8.77
2018-05-26T23:57:36.780Z,9.70
